sensor_id;sensor_type;location;lat;lon;timestamp;pressure;altitude;pressure_sealevel;temperature;humidity
43770;BME280;6597;52.218;9.882;2023-06-14T00:01:11;100872.25;;;14.72;65.55
43770;BME280;6597;52.218;9.882;2023-06-14T00:03:40;100875.03;;;14.69;65.53
43770;BME280;6597;52.218;9.882;2023-06-14T00:06:06;100876.22;;;14.63;65.84
43770;BME280;6597;52.218;9.882;2023-06-14T00:08:33;100883.72;;;14.54;66.98
43770;BME280;6597;52.218;9.882;2023-06-14T00:11:00;100877.09;;;14.45;67.47
43770;BME280;6597;52.218;9.882;2023-06-14T00:13:36;100886.16;;;14.40;67.28
43770;BME280;6597;52.218;9.882;2023-06-14T00:16:03;100890.66;;;14.38;67.99
43770;BME280;6597;52.218;9.882;2023-06-14T00:18:29;100895.09;;;14.37;67.52
43770;BME280;6597;52.218;9.882;2023-06-14T00:20:57;100889.72;;;14.39;67.77
43770;BME280;6597;52.218;9.882;2023-06-14T00:23:24;100893.22;;;14.39;67.82
43770;BME280;6597;52.218;9.882;2023-06-14T00:25:50;100897.09;;;14.32;67.78
43770;BME280;6597;52.218;9.882;2023-06-14T00:28:17;100887.09;;;14.20;68.20
43770;BME280;6597;52.218;9.882;2023-06-14T00:30:43;100892.59;;;14.15;68.44
43770;BME280;6597;52.218;9.882;2023-06-14T00:33:11;100899.19;;;14.07;69.34
43770;BME280;6597;52.218;9.882;2023-06-14T00:35:38;100889.78;;;14.01;69.54
43770;BME280;6597;52.218;9.882;2023-06-14T00:38:06;100894.19;;;14.00;69.04
43770;BME280;6597;52.218;9.882;2023-06-14T00:40:33;100896.31;;;13.92;69.53
43770;BME280;6597;52.218;9.882;2023-06-14T00:43:00;100891.25;;;13.88;69.65
43770;BME280;6597;52.218;9.882;2023-06-14T00:45:27;100896.53;;;13.88;69.76
43770;BME280;6597;52.218;9.882;2023-06-14T00:47:53;100887.41;;;13.76;70.44
43770;BME280;6597;52.218;9.882;2023-06-14T00:50:21;100889.28;;;13.74;70.54
43770;BME280;6597;52.218;9.882;2023-06-14T00:52:49;100894.75;;;13.69;71.19
43770;BME280;6597;52.218;9.882;2023-06-14T00:55:18;100894.06;;;13.66;70.93
43770;BME280;6597;52.218;9.882;2023-06-14T00:57:45;100895.00;;;13.63;70.95
43770;BME280;6597;52.218;9.882;2023-06-14T01:00:13;100895.22;;;13.59;70.93
43770;BME280;6597;52.218;9.882;2023-06-14T01:02:40;100898.16;;;13.53;70.83
43770;BME280;6597;52.218;9.882;2023-06-14T01:05:09;100904.56;;;13.47;71.62
43770;BME280;6597;52.218;9.882;2023-06-14T01:07:49;100897.78;;;13.42;72.61
43770;BME280;6597;52.218;9.882;2023-06-14T01:10:30;100897.84;;;13.40;72.81
43770;BME280;6597;52.218;9.882;2023-06-14T01:13:03;100902.13;;;13.43;72.52
43770;BME280;6597;52.218;9.882;2023-06-14T01:15:31;100901.34;;;13.41;71.68
43770;BME280;6597;52.218;9.882;2023-06-14T01:17:58;100900.69;;;13.35;72.02
43770;BME280;6597;52.218;9.882;2023-06-14T01:20:30;100902.59;;;13.32;72.37
43770;BME280;6597;52.218;9.882;2023-06-14T01:22:59;100906.41;;;13.25;72.96
43770;BME280;6597;52.218;9.882;2023-06-14T01:25:26;100892.91;;;13.12;74.20
43770;BME280;6597;52.218;9.882;2023-06-14T01:27:55;100891.13;;;13.13;74.18
43770;BME280;6597;52.218;9.882;2023-06-14T01:30:25;100904.16;;;13.16;73.56
43770;BME280;6597;52.218;9.882;2023-06-14T01:32:54;100908.56;;;13.15;74.26
43770;BME280;6597;52.218;9.882;2023-06-14T01:35:21;100901.66;;;13.13;73.63
43770;BME280;6597;52.218;9.882;2023-06-14T01:37:48;100902.72;;;13.08;73.41
43770;BME280;6597;52.218;9.882;2023-06-14T01:40:17;100904.88;;;12.99;74.13
43770;BME280;6597;52.218;9.882;2023-06-14T01:42:45;100888.59;;;12.89;73.91
43770;BME280;6597;52.218;9.882;2023-06-14T01:45:12;100899.13;;;12.89;73.43
43770;BME280;6597;52.218;9.882;2023-06-14T01:47:40;100909.75;;;12.88;73.65
43770;BME280;6597;52.218;9.882;2023-06-14T01:50:08;100911.72;;;12.83;73.39
43770;BME280;6597;52.218;9.882;2023-06-14T01:52:36;100912.72;;;12.80;73.97
43770;BME280;6597;52.218;9.882;2023-06-14T01:55:03;100911.13;;;12.76;74.38
43770;BME280;6597;52.218;9.882;2023-06-14T01:57:31;100900.94;;;12.67;74.70
43770;BME280;6597;52.218;9.882;2023-06-14T01:59:58;100912.47;;;12.64;75.01
43770;BME280;6597;52.218;9.882;2023-06-14T02:02:25;100905.63;;;12.60;75.19
43770;BME280;6597;52.218;9.882;2023-06-14T02:04:52;100910.88;;;12.60;75.18
43770;BME280;6597;52.218;9.882;2023-06-14T02:07:22;100914.44;;;12.59;74.59
43770;BME280;6597;52.218;9.882;2023-06-14T02:09:50;100910.16;;;12.57;75.50
43770;BME280;6597;52.218;9.882;2023-06-14T02:12:17;100912.00;;;12.55;75.10
43770;BME280;6597;52.218;9.882;2023-06-14T02:14:45;100904.59;;;12.42;75.42
43770;BME280;6597;52.218;9.882;2023-06-14T02:17:12;100920.28;;;12.45;74.81
43770;BME280;6597;52.218;9.882;2023-06-14T02:19:39;100910.78;;;12.41;75.27
43770;BME280;6597;52.218;9.882;2023-06-14T02:22:06;100911.91;;;12.36;75.18
43770;BME280;6597;52.218;9.882;2023-06-14T02:24:33;100917.25;;;12.33;75.03
43770;BME280;6597;52.218;9.882;2023-06-14T02:27:01;100897.50;;;12.23;75.57
43770;BME280;6597;52.218;9.882;2023-06-14T02:29:27;100910.28;;;12.32;76.21
43770;BME280;6597;52.218;9.882;2023-06-14T02:31:55;100914.69;;;12.31;76.37
43770;BME280;6597;52.218;9.882;2023-06-14T02:34:21;100913.28;;;12.23;76.77
43770;BME280;6597;52.218;9.882;2023-06-14T02:36:48;100916.22;;;12.15;77.06
43770;BME280;6597;52.218;9.882;2023-06-14T02:39:15;100919.16;;;12.07;77.03
43770;BME280;6597;52.218;9.882;2023-06-14T02:41:42;100923.72;;;12.02;77.12
43770;BME280;6597;52.218;9.882;2023-06-14T02:44:09;100929.16;;;11.98;77.39
43770;BME280;6597;52.218;9.882;2023-06-14T02:46:37;100931.84;;;11.96;77.38
43770;BME280;6597;52.218;9.882;2023-06-14T02:49:05;100937.16;;;11.95;77.52
43770;BME280;6597;52.218;9.882;2023-06-14T02:51:31;100930.19;;;11.94;78.03
43770;BME280;6597;52.218;9.882;2023-06-14T02:53:58;100935.34;;;11.97;77.96
43770;BME280;6597;52.218;9.882;2023-06-14T02:56:24;100942.47;;;11.93;78.32
43770;BME280;6597;52.218;9.882;2023-06-14T02:58:51;100941.81;;;11.88;78.36
43770;BME280;6597;52.218;9.882;2023-06-14T03:01:19;100946.44;;;11.81;78.60
43770;BME280;6597;52.218;9.882;2023-06-14T03:03:46;100933.69;;;11.69;78.63
43770;BME280;6597;52.218;9.882;2023-06-14T03:06:15;100946.63;;;11.75;78.96
43770;BME280;6597;52.218;9.882;2023-06-14T03:08:43;100945.91;;;11.72;79.40
43770;BME280;6597;52.218;9.882;2023-06-14T03:11:13;100939.81;;;11.70;79.46
43770;BME280;6597;52.218;9.882;2023-06-14T03:13:40;100952.09;;;11.69;79.66
43770;BME280;6597;52.218;9.882;2023-06-14T03:16:07;100952.16;;;11.68;79.92
43770;BME280;6597;52.218;9.882;2023-06-14T03:18:37;100953.00;;;11.68;79.99
43770;BME280;6597;52.218;9.882;2023-06-14T03:21:05;100960.09;;;11.66;80.33
43770;BME280;6597;52.218;9.882;2023-06-14T03:23:33;100960.16;;;11.65;80.39
43770;BME280;6597;52.218;9.882;2023-06-14T03:26:02;100962.72;;;11.66;80.77
43770;BME280;6597;52.218;9.882;2023-06-14T03:28:29;100966.16;;;11.68;80.83
43770;BME280;6597;52.218;9.882;2023-06-14T03:30:56;100965.22;;;11.71;80.98
43770;BME280;6597;52.218;9.882;2023-06-14T03:33:24;100965.91;;;11.76;81.23
43770;BME280;6597;52.218;9.882;2023-06-14T03:35:51;100964.19;;;11.75;80.75
43770;BME280;6597;52.218;9.882;2023-06-14T03:38:18;100956.56;;;11.67;80.82
43770;BME280;6597;52.218;9.882;2023-06-14T03:40:46;100966.09;;;11.70;80.58
43770;BME280;6597;52.218;9.882;2023-06-14T03:43:13;100968.72;;;11.71;80.80
43770;BME280;6597;52.218;9.882;2023-06-14T03:45:40;100973.75;;;11.77;80.30
43770;BME280;6597;52.218;9.882;2023-06-14T03:48:09;100961.56;;;11.75;80.62
43770;BME280;6597;52.218;9.882;2023-06-14T03:50:36;100987.38;;;11.89;80.20
43770;BME280;6597;52.218;9.882;2023-06-14T03:53:05;100987.09;;;11.96;80.11
43770;BME280;6597;52.218;9.882;2023-06-14T03:55:32;100989.53;;;12.01;80.06
43770;BME280;6597;52.218;9.882;2023-06-14T03:58:00;100975.53;;;12.00;79.74
43770;BME280;6597;52.218;9.882;2023-06-14T04:03:00;100989.84;;;12.17;79.46
43770;BME280;6597;52.218;9.882;2023-06-14T04:05:30;100991.31;;;12.24;79.42
43770;BME280;6597;52.218;9.882;2023-06-14T04:07:57;100998.97;;;12.30;79.13
43770;BME280;6597;52.218;9.882;2023-06-14T04:10:24;101002.28;;;12.35;79.16
43770;BME280;6597;52.218;9.882;2023-06-14T04:12:51;100994.19;;;12.41;79.33
43770;BME280;6597;52.218;9.882;2023-06-14T04:15:20;100993.06;;;12.46;78.73
43770;BME280;6597;52.218;9.882;2023-06-14T04:17:46;100994.06;;;12.44;78.35
43770;BME280;6597;52.218;9.882;2023-06-14T04:20:15;100988.91;;;12.41;78.01
43770;BME280;6597;52.218;9.882;2023-06-14T04:22:42;100992.41;;;12.41;78.31
43770;BME280;6597;52.218;9.882;2023-06-14T04:25:10;101001.22;;;12.40;79.18
43770;BME280;6597;52.218;9.882;2023-06-14T04:27:38;101005.38;;;12.46;78.89
43770;BME280;6597;52.218;9.882;2023-06-14T04:30:06;101006.00;;;12.53;79.07
43770;BME280;6597;52.218;9.882;2023-06-14T04:32:38;100999.69;;;12.57;79.18
43770;BME280;6597;52.218;9.882;2023-06-14T04:35:07;101010.91;;;12.62;79.27
43770;BME280;6597;52.218;9.882;2023-06-14T04:37:36;101012.50;;;12.66;79.83
43770;BME280;6597;52.218;9.882;2023-06-14T04:40:07;101013.25;;;12.69;80.39
43770;BME280;6597;52.218;9.882;2023-06-14T04:42:35;101016.50;;;12.76;80.72
43770;BME280;6597;52.218;9.882;2023-06-14T04:45:04;101019.75;;;12.83;81.25
43770;BME280;6597;52.218;9.882;2023-06-14T04:47:32;101023.03;;;12.88;81.50
43770;BME280;6597;52.218;9.882;2023-06-14T04:50:01;101027.13;;;12.95;81.53
43770;BME280;6597;52.218;9.882;2023-06-14T04:52:30;101024.09;;;13.05;81.38
43770;BME280;6597;52.218;9.882;2023-06-14T04:54:57;101026.25;;;13.16;81.87
43770;BME280;6597;52.218;9.882;2023-06-14T04:57:24;101024.25;;;13.23;82.04
43770;BME280;6597;52.218;9.882;2023-06-14T04:59:54;101016.09;;;13.29;83.09
43770;BME280;6597;52.218;9.882;2023-06-14T05:02:24;101024.50;;;13.38;82.85
43770;BME280;6597;52.218;9.882;2023-06-14T05:04:53;101023.38;;;13.44;83.15
43770;BME280;6597;52.218;9.882;2023-06-14T05:07:24;101024.88;;;13.50;83.53
43770;BME280;6597;52.218;9.882;2023-06-14T05:09:51;101027.03;;;13.60;83.08
43770;BME280;6597;52.218;9.882;2023-06-14T05:12:18;101023.97;;;13.71;82.37
43770;BME280;6597;52.218;9.882;2023-06-14T05:14:44;101026.97;;;13.82;82.88
43770;BME280;6597;52.218;9.882;2023-06-14T05:17:11;101033.56;;;13.92;82.41
43770;BME280;6597;52.218;9.882;2023-06-14T05:19:37;101035.66;;;14.05;81.13
43770;BME280;6597;52.218;9.882;2023-06-14T05:22:04;101037.81;;;14.15;80.54
43770;BME280;6597;52.218;9.882;2023-06-14T05:24:32;101035.66;;;14.23;79.66
43770;BME280;6597;52.218;9.882;2023-06-14T05:26:58;101037.91;;;14.32;79.82
43770;BME280;6597;52.218;9.882;2023-06-14T05:29:25;101037.28;;;14.46;78.74
43770;BME280;6597;52.218;9.882;2023-06-14T05:31:52;101031.50;;;14.57;77.71
43770;BME280;6597;52.218;9.882;2023-06-14T05:34:19;101038.09;;;14.67;76.61
43770;BME280;6597;52.218;9.882;2023-06-14T05:36:45;101043.78;;;14.77;76.07
43770;BME280;6597;52.218;9.882;2023-06-14T05:39:12;101046.19;;;14.81;74.44
43770;BME280;6597;52.218;9.882;2023-06-14T05:41:41;101048.22;;;14.93;74.50
43770;BME280;6597;52.218;9.882;2023-06-14T05:44:09;101042.00;;;14.94;74.09
43770;BME280;6597;52.218;9.882;2023-06-14T05:46:35;101048.28;;;15.11;74.18
43770;BME280;6597;52.218;9.882;2023-06-14T05:49:02;101036.47;;;15.18;72.32
43770;BME280;6597;52.218;9.882;2023-06-14T05:51:28;101049.38;;;15.24;72.65
43770;BME280;6597;52.218;9.882;2023-06-14T05:53:55;101056.19;;;15.30;72.90
43770;BME280;6597;52.218;9.882;2023-06-14T05:56:22;101054.94;;;15.37;72.86
43770;BME280;6597;52.218;9.882;2023-06-14T05:58:50;101057.81;;;15.49;72.25
43770;BME280;6597;52.218;9.882;2023-06-14T06:01:16;101057.06;;;15.65;72.44
43770;BME280;6597;52.218;9.882;2023-06-14T06:03:43;101054.47;;;15.80;71.75
43770;BME280;6597;52.218;9.882;2023-06-14T06:06:11;101057.88;;;16.00;70.88
43770;BME280;6597;52.218;9.882;2023-06-14T06:08:38;101052.94;;;16.09;69.19
43770;BME280;6597;52.218;9.882;2023-06-14T06:11:05;101052.78;;;16.12;69.06
43770;BME280;6597;52.218;9.882;2023-06-14T06:13:32;101053.91;;;16.24;68.89
43770;BME280;6597;52.218;9.882;2023-06-14T06:16:01;101053.69;;;16.29;69.01
43770;BME280;6597;52.218;9.882;2023-06-14T06:18:28;101056.59;;;16.40;68.84
43770;BME280;6597;52.218;9.882;2023-06-14T06:20:54;101053.63;;;16.62;68.44
43770;BME280;6597;52.218;9.882;2023-06-14T06:23:21;101052.97;;;16.90;67.40
43770;BME280;6597;52.218;9.882;2023-06-14T06:25:47;101055.34;;;17.10;66.38
43770;BME280;6597;52.218;9.882;2023-06-14T06:28:14;101059.94;;;17.22;65.05
43770;BME280;6597;52.218;9.882;2023-06-14T06:30:41;101056.66;;;17.33;64.55
43770;BME280;6597;52.218;9.882;2023-06-14T06:33:09;101067.09;;;17.36;64.84
43770;BME280;6597;52.218;9.882;2023-06-14T06:35:37;101066.88;;;17.55;65.14
43770;BME280;6597;52.218;9.882;2023-06-14T06:38:03;101067.53;;;17.74;63.16
43770;BME280;6597;52.218;9.882;2023-06-14T06:40:30;101073.50;;;17.78;62.80
43770;BME280;6597;52.218;9.882;2023-06-14T06:42:56;101073.34;;;17.95;61.81
43770;BME280;6597;52.218;9.882;2023-06-14T06:45:26;101070.78;;;18.08;61.68
43770;BME280;6597;52.218;9.882;2023-06-14T06:47:52;101076.78;;;18.25;62.16
43770;BME280;6597;52.218;9.882;2023-06-14T06:50:20;101072.88;;;18.45;60.25
43770;BME280;6597;52.218;9.882;2023-06-14T06:52:48;101078.19;;;18.59;59.61
43770;BME280;6597;52.218;9.882;2023-06-14T06:55:15;101084.75;;;18.68;58.65
43770;BME280;6597;52.218;9.882;2023-06-14T06:57:43;101078.84;;;18.77;59.66
43770;BME280;6597;52.218;9.882;2023-06-14T07:00:10;101085.38;;;18.86;59.39
43770;BME280;6597;52.218;9.882;2023-06-14T07:02:37;101086.19;;;19.01;55.77
43770;BME280;6597;52.218;9.882;2023-06-14T07:05:04;101093.03;;;19.05;57.17
43770;BME280;6597;52.218;9.882;2023-06-14T07:07:32;101099.25;;;19.18;56.35
43770;BME280;6597;52.218;9.882;2023-06-14T07:09:59;101091.53;;;19.27;56.41
43770;BME280;6597;52.218;9.882;2023-06-14T07:12:29;101103.50;;;19.47;56.37
43770;BME280;6597;52.218;9.882;2023-06-14T07:14:57;101092.56;;;19.52;54.69
43770;BME280;6597;52.218;9.882;2023-06-14T07:17:24;101092.94;;;19.60;54.62
43770;BME280;6597;52.218;9.882;2023-06-14T07:19:50;101101.16;;;19.70;53.62
43770;BME280;6597;52.218;9.882;2023-06-14T07:22:18;101097.63;;;19.69;53.42
43770;BME280;6597;52.218;9.882;2023-06-14T07:24:46;101111.06;;;19.80;52.92
43770;BME280;6597;52.218;9.882;2023-06-14T07:27:15;101109.81;;;19.86;54.12
43770;BME280;6597;52.218;9.882;2023-06-14T07:37:15;101105.03;;;20.04;52.57
43770;BME280;6597;52.218;9.882;2023-06-14T07:39:42;101098.75;;;20.05;52.98
43770;BME280;6597;52.218;9.882;2023-06-14T07:42:10;101107.25;;;20.10;50.71
43770;BME280;6597;52.218;9.882;2023-06-14T07:44:36;101109.63;;;20.02;51.93
43770;BME280;6597;52.218;9.882;2023-06-14T07:47:03;101104.81;;;20.07;50.92
43770;BME280;6597;52.218;9.882;2023-06-14T07:49:30;101093.63;;;20.14;49.65
43770;BME280;6597;52.218;9.882;2023-06-14T07:51:57;101097.16;;;20.40;50.59
43770;BME280;6597;52.218;9.882;2023-06-14T07:54:24;101097.91;;;20.55;49.03
43770;BME280;6597;52.218;9.882;2023-06-14T07:56:51;101099.06;;;20.64;49.77
43770;BME280;6597;52.218;9.882;2023-06-14T07:59:19;101091.72;;;20.55;49.80
43770;BME280;6597;52.218;9.882;2023-06-14T08:01:48;101099.91;;;20.64;49.07
43770;BME280;6597;52.218;9.882;2023-06-14T08:04:14;101100.31;;;20.71;48.15
43770;BME280;6597;52.218;9.882;2023-06-14T08:06:41;101104.38;;;20.64;47.42
43770;BME280;6597;52.218;9.882;2023-06-14T08:09:09;101105.25;;;20.64;48.34
43770;BME280;6597;52.218;9.882;2023-06-14T08:11:36;101104.78;;;20.70;48.44
43770;BME280;6597;52.218;9.882;2023-06-14T08:14:02;101098.38;;;20.86;49.12
43770;BME280;6597;52.218;9.882;2023-06-14T08:16:30;101094.28;;;20.93;48.23
43770;BME280;6597;52.218;9.882;2023-06-14T08:18:57;101104.00;;;20.94;47.29
43770;BME280;6597;52.218;9.882;2023-06-14T08:21:23;101107.22;;;20.86;47.52
43770;BME280;6597;52.218;9.882;2023-06-14T08:23:54;101106.28;;;20.74;48.58
43770;BME280;6597;52.218;9.882;2023-06-14T08:26:21;101111.16;;;20.80;48.95
43770;BME280;6597;52.218;9.882;2023-06-14T08:28:47;101104.97;;;20.80;47.94
43770;BME280;6597;52.218;9.882;2023-06-14T08:31:14;101100.41;;;20.82;48.25
43770;BME280;6597;52.218;9.882;2023-06-14T08:33:42;101102.22;;;20.81;47.57
43770;BME280;6597;52.218;9.882;2023-06-14T08:36:08;101105.16;;;20.53;47.23
43770;BME280;6597;52.218;9.882;2023-06-14T08:38:36;101095.97;;;20.57;47.78
43770;BME280;6597;52.218;9.882;2023-06-14T08:41:04;101105.66;;;20.71;48.97
43770;BME280;6597;52.218;9.882;2023-06-14T08:43:32;101108.72;;;20.77;47.56
43770;BME280;6597;52.218;9.882;2023-06-14T08:46:00;101105.53;;;20.72;48.30
43770;BME280;6597;52.218;9.882;2023-06-14T08:48:28;101105.00;;;20.67;50.21
43770;BME280;6597;52.218;9.882;2023-06-14T08:50:59;101101.78;;;20.75;48.19
43770;BME280;6597;52.218;9.882;2023-06-14T08:53:28;101103.19;;;20.68;48.32
43770;BME280;6597;52.218;9.882;2023-06-14T08:55:57;101101.75;;;20.51;46.52
43770;BME280;6597;52.218;9.882;2023-06-14T08:58:27;101102.38;;;20.42;47.86
43770;BME280;6597;52.218;9.882;2023-06-14T09:00:55;101114.59;;;20.70;48.13
43770;BME280;6597;52.218;9.882;2023-06-14T09:03:21;101104.78;;;21.07;46.95
43770;BME280;6597;52.218;9.882;2023-06-14T09:05:56;101110.75;;;21.10;46.51
43770;BME280;6597;52.218;9.882;2023-06-14T09:08:25;101102.09;;;21.20;46.61
43770;BME280;6597;52.218;9.882;2023-06-14T09:10:52;101115.63;;;21.29;47.61
43770;BME280;6597;52.218;9.882;2023-06-14T09:13:19;101113.63;;;21.44;45.43
43770;BME280;6597;52.218;9.882;2023-06-14T09:15:45;101109.94;;;21.58;45.24
43770;BME280;6597;52.218;9.882;2023-06-14T09:18:12;101102.31;;;21.75;44.50
43770;BME280;6597;52.218;9.882;2023-06-14T09:20:40;101105.03;;;21.87;45.06
43770;BME280;6597;52.218;9.882;2023-06-14T09:23:07;101121.50;;;22.04;43.97
43770;BME280;6597;52.218;9.882;2023-06-14T09:25:41;101120.09;;;22.12;44.23
43770;BME280;6597;52.218;9.882;2023-06-14T09:28:09;101119.13;;;22.24;45.60
43770;BME280;6597;52.218;9.882;2023-06-14T09:30:36;101124.59;;;22.33;44.22
43770;BME280;6597;52.218;9.882;2023-06-14T09:33:03;101120.59;;;22.50;43.37
43770;BME280;6597;52.218;9.882;2023-06-14T09:35:31;101115.09;;;22.41;43.18
43770;BME280;6597;52.218;9.882;2023-06-14T09:37:57;101120.09;;;22.56;43.19
43770;BME280;6597;52.218;9.882;2023-06-14T09:40:24;101118.88;;;22.72;42.51
43770;BME280;6597;52.218;9.882;2023-06-14T09:42:52;101123.38;;;22.93;42.52
43770;BME280;6597;52.218;9.882;2023-06-14T09:45:20;101106.56;;;23.03;42.33
43770;BME280;6597;52.218;9.882;2023-06-14T09:47:48;101119.25;;;22.78;42.49
43770;BME280;6597;52.218;9.882;2023-06-14T09:50:15;101116.69;;;22.65;40.78
43770;BME280;6597;52.218;9.882;2023-06-14T09:52:43;101110.84;;;22.38;42.01
43770;BME280;6597;52.218;9.882;2023-06-14T09:55:12;101109.63;;;22.42;43.50
43770;BME280;6597;52.218;9.882;2023-06-14T09:57:41;101105.97;;;22.65;42.02
43770;BME280;6597;52.218;9.882;2023-06-14T10:00:11;101104.03;;;22.90;41.81
43770;BME280;6597;52.218;9.882;2023-06-14T10:02:40;101105.25;;;22.75;41.81
43770;BME280;6597;52.218;9.882;2023-06-14T10:05:15;101109.28;;;22.58;42.50
43770;BME280;6597;52.218;9.882;2023-06-14T10:07:47;101098.22;;;22.62;41.90
43770;BME280;6597;52.218;9.882;2023-06-14T10:10:14;101099.44;;;22.47;42.01
43770;BME280;6597;52.218;9.882;2023-06-14T10:12:41;101096.03;;;22.23;43.12
43770;BME280;6597;52.218;9.882;2023-06-14T10:15:14;101101.13;;;22.26;44.32
43770;BME280;6597;52.218;9.882;2023-06-14T10:17:47;101097.72;;;22.35;43.13
43770;BME280;6597;52.218;9.882;2023-06-14T10:20:21;101083.63;;;22.22;43.09
43770;BME280;6597;52.218;9.882;2023-06-14T10:22:52;101101.03;;;22.50;44.45
43770;BME280;6597;52.218;9.882;2023-06-14T10:25:26;101090.28;;;22.72;42.76
43770;BME280;6597;52.218;9.882;2023-06-14T10:28:02;101078.72;;;22.72;43.31
43770;BME280;6597;52.218;9.882;2023-06-14T10:30:30;101085.31;;;22.90;42.53
43770;BME280;6597;52.218;9.882;2023-06-14T10:33:06;101087.94;;;23.01;43.82
43770;BME280;6597;52.218;9.882;2023-06-14T10:35:33;101095.53;;;23.28;42.30
43770;BME280;6597;52.218;9.882;2023-06-14T10:38:07;101093.00;;;23.26;41.32
43770;BME280;6597;52.218;9.882;2023-06-14T10:40:34;101075.06;;;22.95;41.98
43770;BME280;6597;52.218;9.882;2023-06-14T10:43:01;101077.50;;;22.76;41.71
43770;BME280;6597;52.218;9.882;2023-06-14T10:46:12;101075.84;;;22.86;41.88
43770;BME280;6597;52.218;9.882;2023-06-14T10:48:40;101080.41;;;22.95;42.62
43770;BME280;6597;52.218;9.882;2023-06-14T10:51:15;101074.47;;;22.91;42.97
43770;BME280;6597;52.218;9.882;2023-06-14T10:53:45;101071.16;;;22.99;44.27
43770;BME280;6597;52.218;9.882;2023-06-14T10:56:23;101065.09;;;23.29;42.28
43770;BME280;6597;52.218;9.882;2023-06-14T10:58:51;101067.84;;;23.39;41.63
43770;BME280;6597;52.218;9.882;2023-06-14T11:01:27;101070.03;;;23.45;41.53
43770;BME280;6597;52.218;9.882;2023-06-14T11:04:09;101061.75;;;23.48;41.22
43770;BME280;6597;52.218;9.882;2023-06-14T11:06:46;101062.13;;;23.75;41.05
43770;BME280;6597;52.218;9.882;2023-06-14T11:09:51;101053.16;;;24.16;40.37
43770;BME280;6597;52.218;9.882;2023-06-14T11:12:23;101053.88;;;24.18;39.80
43770;BME280;6597;52.218;9.882;2023-06-14T11:14:51;101065.34;;;24.00;40.05
43770;BME280;6597;52.218;9.882;2023-06-14T11:17:20;101063.19;;;23.94;40.52
43770;BME280;6597;52.218;9.882;2023-06-14T11:19:46;101058.44;;;23.76;40.74
43770;BME280;6597;52.218;9.882;2023-06-14T11:22:13;101055.22;;;23.62;41.64
43770;BME280;6597;52.218;9.882;2023-06-14T11:24:42;101055.25;;;23.50;42.30
43770;BME280;6597;52.218;9.882;2023-06-14T11:27:09;101051.41;;;23.43;43.02
43770;BME280;6597;52.218;9.882;2023-06-14T11:29:36;101054.38;;;23.29;43.41
43770;BME280;6597;52.218;9.882;2023-06-14T11:32:06;101050.44;;;23.44;44.22
43770;BME280;6597;52.218;9.882;2023-06-14T11:34:38;101044.41;;;23.52;42.55
43770;BME280;6597;52.218;9.882;2023-06-14T11:37:05;101039.84;;;23.43;41.85
43770;BME280;6597;52.218;9.882;2023-06-14T11:39:32;101046.81;;;23.34;43.80
43770;BME280;6597;52.218;9.882;2023-06-14T11:41:58;101044.56;;;23.18;43.41
43770;BME280;6597;52.218;9.882;2023-06-14T11:44:26;101044.38;;;23.10;43.49
43770;BME280;6597;52.218;9.882;2023-06-14T11:46:53;101036.78;;;23.15;43.31
43770;BME280;6597;52.218;9.882;2023-06-14T11:49:21;101039.59;;;23.14;43.07
43770;BME280;6597;52.218;9.882;2023-06-14T11:51:49;101049.41;;;23.24;44.53
43770;BME280;6597;52.218;9.882;2023-06-14T11:54:16;101047.47;;;23.26;42.93
43770;BME280;6597;52.218;9.882;2023-06-14T11:56:42;101043.88;;;23.05;43.67
43770;BME280;6597;52.218;9.882;2023-06-14T11:59:09;101039.66;;;22.91;43.85
43770;BME280;6597;52.218;9.882;2023-06-14T12:01:36;101044.38;;;22.99;43.06
43770;BME280;6597;52.218;9.882;2023-06-14T12:04:04;101036.78;;;23.15;42.90
43770;BME280;6597;52.218;9.882;2023-06-14T12:06:31;101040.53;;;23.24;43.41
43770;BME280;6597;52.218;9.882;2023-06-14T12:09:06;101027.41;;;23.21;42.90
43770;BME280;6597;52.218;9.882;2023-06-14T12:11:38;101037.47;;;23.28;41.39
43770;BME280;6597;52.218;9.882;2023-06-14T12:14:04;101031.84;;;23.32;41.97
43770;BME280;6597;52.218;9.882;2023-06-14T12:16:32;101036.91;;;23.46;41.23
43770;BME280;6597;52.218;9.882;2023-06-14T12:19:11;101021.38;;;23.61;41.29
43770;BME280;6597;52.218;9.882;2023-06-14T12:21:39;101026.16;;;23.78;40.84
43770;BME280;6597;52.218;9.882;2023-06-14T12:24:09;101026.94;;;23.99;41.44
43770;BME280;6597;52.218;9.882;2023-06-14T12:26:38;101024.13;;;24.01;40.53
43770;BME280;6597;52.218;9.882;2023-06-14T12:29:05;101024.50;;;23.86;41.38
43770;BME280;6597;52.218;9.882;2023-06-14T12:31:31;101022.16;;;24.03;42.88
43770;BME280;6597;52.218;9.882;2023-06-14T12:33:58;101020.91;;;24.37;42.00
43770;BME280;6597;52.218;9.882;2023-06-14T12:36:25;101011.59;;;24.91;40.95
43770;BME280;6597;52.218;9.882;2023-06-14T12:38:52;101010.19;;;25.35;40.29
43770;BME280;6597;52.218;9.882;2023-06-14T12:41:21;101013.84;;;25.63;39.31
43770;BME280;6597;52.218;9.882;2023-06-14T12:43:47;101016.84;;;25.41;39.52
43770;BME280;6597;52.218;9.882;2023-06-14T12:46:14;101012.63;;;25.19;40.71
43770;BME280;6597;52.218;9.882;2023-06-14T12:48:40;101018.53;;;25.03;40.53
43770;BME280;6597;52.218;9.882;2023-06-14T12:51:07;101019.78;;;24.80;41.11
43770;BME280;6597;52.218;9.882;2023-06-14T12:53:33;101022.13;;;24.64;40.18
43770;BME280;6597;52.218;9.882;2023-06-14T12:56:00;101020.72;;;24.60;41.43
43770;BME280;6597;52.218;9.882;2023-06-14T12:58:28;101021.41;;;24.52;41.46
43770;BME280;6597;52.218;9.882;2023-06-14T13:00:54;101013.91;;;24.46;41.25
43770;BME280;6597;52.218;9.882;2023-06-14T13:03:21;101017.22;;;24.29;41.17
43770;BME280;6597;52.218;9.882;2023-06-14T13:05:48;101012.50;;;24.11;41.31
43770;BME280;6597;52.218;9.882;2023-06-14T13:08:15;101015.19;;;23.90;41.50
43770;BME280;6597;52.218;9.882;2023-06-14T13:10:42;101014.31;;;23.59;42.65
43770;BME280;6597;52.218;9.882;2023-06-14T13:13:08;101014.13;;;23.40;43.89
43770;BME280;6597;52.218;9.882;2023-06-14T13:15:38;101005.56;;;23.25;44.33